Time;durP1;ratioP1;P1;durP2;ratioP2;P2;SDS_P1;SDS_P2;PMS_P1;PMS_P2;Temp;Humidity;BMP_temperature;BMP_pressure;BME280_temperature;BME280_humidity;BME280_pressure;Samples;Min_cycle;Max_cycle;Signal;HPM_P1;HPM_P2
2021/01/25 00:01:49;;;;;;;10.03;4.13;;;-3.40;99.90;;;;;;5034085;28;20028;-85
2021/01/25 00:04:15;;;;;;;7.83;4.00;;;-3.40;99.90;;;;;;5053226;28;20025;-85
2021/01/25 00:06:41;;;;;;;9.43;4.00;;;-3.50;99.90;;;;;;5053023;28;20025;-85
2021/01/25 00:09:06;;;;;;;10.60;4.70;;;-3.40;99.90;;;;;;5052794;28;20037;-85
2021/01/25 00:11:32;;;;;;;8.30;3.80;;;-3.50;99.90;;;;;;5035125;28;20481;-85
2021/01/25 00:13:57;;;;;;;9.03;4.00;;;-3.50;99.90;;;;;;5052813;28;20022;-85
2021/01/25 00:16:23;;;;;;;7.10;3.90;;;-3.60;99.90;;;;;;5052817;28;20028;-85
2021/01/25 00:18:49;;;;;;;13.73;4.40;;;-3.60;99.90;;;;;;5052899;28;20086;-85
2021/01/25 00:21:14;;;;;;;8.83;3.50;;;-3.60;99.90;;;;;;5053039;28;20105;-85
2021/01/25 00:23:40;;;;;;;6.47;3.67;;;-3.60;99.90;;;;;;5052499;28;20693;-85
2021/01/25 00:26:05;;;;;;;7.07;3.87;;;-3.60;99.90;;;;;;5052518;28;20032;-85
2021/01/25 00:28:31;;;;;;;6.97;3.50;;;-3.70;99.90;;;;;;5052586;28;20394;-85
2021/01/25 00:30:56;;;;;;;4.27;2.70;;;-3.70;99.90;;;;;;5052594;28;20018;-85
2021/01/25 00:33:22;;;;;;;7.07;3.63;;;-3.80;99.90;;;;;;5034654;28;20025;-85
2021/01/25 00:35:47;;;;;;;6.27;3.30;;;-3.80;99.90;;;;;;5052296;28;20105;-85
2021/01/25 00:38:14;;;;;;;6.30;3.37;;;-3.80;99.90;;;;;;5052305;28;20386;-85
2021/01/25 00:40:40;;;;;;;5.97;3.13;;;-3.80;99.90;;;;;;5034656;28;20381;-85
2021/01/25 00:43:05;;;;;;;7.83;4.00;;;-3.80;99.90;;;;;;5052508;28;20033;-84
2021/01/25 00:45:32;;;;;;;5.60;2.90;;;-3.80;99.90;;;;;;5052264;28;20087;-85
2021/01/25 00:47:57;;;;;;;5.80;3.53;;;-3.80;99.90;;;;;;5052344;28;20378;-85
2021/01/25 00:50:25;;;;;;;7.47;2.87;;;-3.80;99.90;;;;;;5051865;28;20032;-85
2021/01/25 00:52:51;;;;;;;6.37;3.40;;;-3.90;99.90;;;;;;5051917;28;20021;-85
2021/01/25 00:55:17;;;;;;;5.30;3.23;;;-3.90;99.90;;;;;;5052110;28;20083;-85
2021/01/25 00:57:42;;;;;;;8.20;3.20;;;-3.90;99.90;;;;;;5052208;28;20049;-85
2021/01/25 01:00:10;;;;;;;9.57;3.33;;;-3.90;99.90;;;;;;5053581;28;20107;-85
2021/01/25 01:02:36;;;;;;;5.97;3.30;;;-4.00;99.90;;;;;;5036533;28;20029;-85
2021/01/25 01:05:03;;;;;;;5.77;2.87;;;-3.90;99.90;;;;;;5036293;28;20116;-85
2021/01/25 01:07:29;;;;;;;4.53;3.17;;;-4.00;99.90;;;;;;5053732;28;20029;-85
2021/01/25 01:09:54;;;;;;;6.63;2.90;;;-4.00;99.90;;;;;;5051646;28;20044;-85
2021/01/25 01:12:20;;;;;;;4.87;2.83;;;-4.00;99.90;;;;;;5033522;28;20374;-85
2021/01/25 01:14:45;;;;;;;7.17;3.53;;;-4.10;99.90;;;;;;5051315;28;20074;-85
2021/01/25 01:17:11;;;;;;;7.07;2.70;;;-4.10;99.90;;;;;;5051656;28;20052;-85
2021/01/25 01:19:37;;;;;;;7.00;2.63;;;-4.10;99.90;;;;;;5033978;28;20029;-85
2021/01/25 01:22:02;;;;;;;6.53;3.13;;;-4.10;99.90;;;;;;5051374;28;20477;-85
2021/01/25 01:24:28;;;;;;;5.90;2.83;;;-4.10;99.90;;;;;;5051265;28;20029;-85
2021/01/25 01:26:53;;;;;;;7.13;2.97;;;-4.20;99.90;;;;;;5051368;28;20108;-85
2021/01/25 01:29:19;;;;;;;10.30;3.33;;;-4.20;99.90;;;;;;5051045;28;20029;-85
2021/01/25 01:31:45;;;;;;;4.60;2.63;;;-4.20;99.90;;;;;;5051066;28;20032;-85
2021/01/25 01:34:10;;;;;;;9.73;3.13;;;-4.30;99.90;;;;;;5051471;28;20013;-85
2021/01/25 01:36:36;;;;;;;5.53;3.00;;;-4.30;99.90;;;;;;5032912;28;20028;-85
2021/01/25 01:39:02;;;;;;;4.77;3.30;;;-4.40;99.90;;;;;;5033266;28;20366;-85
2021/01/25 01:41:34;;;;;;;6.10;3.10;;;-4.40;99.90;;;;;;5033046;28;20068;-85
2021/01/25 01:43:59;;;;;;;8.37;3.53;;;-4.40;99.90;;;;;;5033312;28;20025;-85
2021/01/25 01:46:25;;;;;;;7.43;3.20;;;-4.50;99.90;;;;;;5050650;28;20354;-85
2021/01/25 01:48:50;;;;;;;5.33;2.70;;;-4.50;99.90;;;;;;5050951;28;20387;-85
2021/01/25 01:51:16;;;;;;;5.27;3.10;;;-4.50;99.90;;;;;;5050765;28;20021;-85
2021/01/25 01:53:42;;;;;;;8.33;2.97;;;-4.50;99.90;;;;;;5051075;28;20061;-85
2021/01/25 01:56:07;;;;;;;4.87;3.47;;;-4.50;99.90;;;;;;5032565;28;20032;-85
2021/01/25 01:58:33;;;;;;;7.17;2.90;;;-4.60;99.90;;;;;;5050803;28;20021;-85
2021/01/25 02:00:58;;;;;;;6.40;2.87;;;-4.60;99.90;;;;;;5050547;28;20021;-85
2021/01/25 02:03:24;;;;;;;8.23;3.10;;;-4.60;99.90;;;;;;5032704;28;20127;-85
2021/01/25 02:05:51;;;;;;;6.90;3.10;;;-4.60;99.90;;;;;;5032996;28;20530;-85
2021/01/25 02:08:19;;;;;;;7.93;3.07;;;-4.60;99.90;;;;;;5050932;28;20609;-85
2021/01/25 02:10:45;;;;;;;6.60;3.27;;;-4.60;99.90;;;;;;5050596;28;20643;-85
2021/01/25 02:13:11;;;;;;;6.90;3.13;;;-4.60;99.90;;;;;;5050546;28;20029;-85
2021/01/25 02:15:36;;;;;;;8.13;3.00;;;-4.70;99.90;;;;;;5050645;28;20040;-85
2021/01/25 02:18:02;;;;;;;6.47;2.90;;;-4.60;99.90;;;;;;5050660;28;20036;-85
2021/01/25 02:20:34;;;;;;;12.97;3.93;;;-4.70;99.90;;;;;;5050594;28;20104;-85
2021/01/25 02:23:37;;;;;;;7.23;3.33;;;-4.70;99.90;;;;;;5050368;28;20021;-85
2021/01/25 02:26:21;;;;;;;7.73;3.00;;;-4.70;99.90;;;;;;5049817;28;20056;-85
2021/01/25 02:28:47;;;;;;;5.83;2.83;;;-4.80;99.90;;;;;;5032335;28;20040;-85
2021/01/25 02:31:13;;;;;;;7.47;3.10;;;-4.80;99.90;;;;;;5050281;28;20021;-85
2021/01/25 02:33:45;;;;;;;5.17;2.70;;;-4.80;99.90;;;;;;5050175;28;20055;-85
2021/01/25 02:36:11;;;;;;;6.07;2.60;;;-4.80;99.90;;;;;;5050439;28;20122;-85
2021/01/25 02:38:41;;;;;;;4.50;3.03;;;-4.90;99.90;;;;;;5032331;28;20429;-85
2021/01/25 02:41:08;;;;;;;6.23;3.23;;;-4.90;99.90;;;;;;5032075;28;20493;-85
2021/01/25 02:43:35;;;;;;;6.43;3.63;;;-4.90;99.90;;;;;;5050214;28;20063;-85
2021/01/25 02:46:02;;;;;;;6.20;3.50;;;-4.90;99.90;;;;;;5050120;28;20067;-85
2021/01/25 02:48:27;;;;;;;5.77;3.40;;;-4.90;99.90;;;;;;5032072;28;20472;-85
2021/01/25 02:50:53;;;;;;;9.33;3.53;;;-4.90;99.90;;;;;;5049960;28;20029;-85
2021/01/25 02:53:19;;;;;;;5.80;3.30;;;-4.80;99.90;;;;;;5050286;28;20029;-85
2021/01/25 02:55:50;;;;;;;5.67;3.17;;;-4.80;99.90;;;;;;5049928;28;20025;-85
2021/01/25 02:58:16;;;;;;;6.83;3.50;;;-4.80;99.90;;;;;;5050024;28;20040;-85
2021/01/25 03:00:42;;;;;;;7.33;3.90;;;-4.80;99.90;;;;;;5032144;28;20339;-85
2021/01/25 03:03:08;;;;;;;6.40;3.53;;;-4.80;99.90;;;;;;5050017;28;20063;-85
2021/01/25 03:05:34;;;;;;;7.47;4.00;;;-4.70;99.90;;;;;;5050114;28;20032;-85
2021/01/25 03:08:02;;;;;;;6.30;3.80;;;-4.60;99.90;;;;;;5032136;28;20079;-85
2021/01/25 03:10:28;;;;;;;5.83;2.90;;;-4.60;99.90;;;;;;5049863;28;20033;-85
2021/01/25 03:13:00;;;;;;;6.43;3.33;;;-4.60;99.90;;;;;;5049931;28;20371;-85
2021/01/25 03:15:27;;;;;;;7.43;3.47;;;-4.60;99.90;;;;;;5050078;28;20059;-85
2021/01/25 03:17:52;;;;;;;6.70;3.00;;;-4.60;99.90;;;;;;5049641;28;20108;-85
2021/01/25 03:20:18;;;;;;;5.00;3.30;;;-4.60;99.90;;;;;;5049950;28;20100;-85
2021/01/25 03:22:43;;;;;;;6.23;3.10;;;-4.60;99.90;;;;;;5049831;28;20056;-85
2021/01/25 03:25:10;;;;;;;5.00;2.80;;;-4.60;99.90;;;;;;5049803;28;20029;-85
2021/01/25 03:27:36;;;;;;;6.23;3.10;;;-4.60;99.90;;;;;;5049851;28;20041;-85
2021/01/25 03:30:11;;;;;;;6.73;2.70;;;-4.60;99.90;;;;;;5049709;28;20489;-85
2021/01/25 03:32:37;;;;;;;6.32;2.33;;;-4.50;99.90;;;;;;5049961;28;20029;-85
2021/01/25 03:35:04;;;;;;;4.53;2.80;;;-4.40;99.90;;;;;;5049971;28;20035;-85
2021/01/25 03:37:31;;;;;;;4.40;3.00;;;-4.40;99.90;;;;;;5033665;28;20359;-85
2021/01/25 03:39:57;;;;;;;4.83;2.77;;;-4.40;99.90;;;;;;5053366;28;20021;-85
2021/01/25 03:42:23;;;;;;;5.13;2.50;;;-4.50;99.90;;;;;;5035109;28;20486;-85
2021/01/25 03:44:48;;;;;;;4.73;2.97;;;-4.50;99.90;;;;;;5034975;28;20033;-85
2021/01/25 03:47:14;;;;;;;6.83;3.00;;;-4.60;99.90;;;;;;5053067;28;20108;-85
2021/01/25 03:49:39;;;;;;;7.80;2.97;;;-4.60;99.90;;;;;;5034944;28;20032;-85
2021/01/25 03:52:05;;;;;;;7.60;2.90;;;-4.70;99.90;;;;;;5053030;28;20526;-85
2021/01/25 03:54:30;;;;;;;6.57;2.67;;;-4.70;99.90;;;;;;5053328;28;20032;-85
2021/01/25 03:56:56;;;;;;;3.80;2.53;;;-4.80;99.90;;;;;;5034708;28;20394;-85
2021/01/25 03:59:21;;;;;;;6.07;2.73;;;-4.80;99.90;;;;;;5034850;28;20025;-85
2021/01/25 04:01:47;;;;;;;3.57;2.43;;;-4.80;99.90;;;;;;5052792;28;20457;-85
2021/01/25 04:04:12;;;;;;;6.43;3.20;;;-4.80;99.90;;;;;;5052517;28;20531;-85
2021/01/25 04:06:38;;;;;;;7.57;2.70;;;-4.80;99.90;;;;;;5052697;28;20025;-85
2021/01/25 04:09:05;;;;;;;6.23;2.97;;;-4.80;99.90;;;;;;5034727;28;20037;-84
2021/01/25 04:11:31;;;;;;;4.33;2.10;;;-4.80;99.90;;;;;;5034792;28;20049;-85
2021/01/25 04:13:57;;;;;;;5.67;2.70;;;-4.80;99.90;;;;;;5052438;28;20422;-85
2021/01/25 04:16:22;;;;;;;5.17;2.80;;;-4.80;99.90;;;;;;5052879;28;20151;-85
2021/01/25 04:18:48;;;;;;;7.10;2.80;;;-4.80;99.90;;;;;;5053282;28;20104;-85
2021/01/25 04:21:14;;;;;;;9.30;2.73;;;-4.90;99.90;;;;;;5052370;28;20032;-85
2021/01/25 04:23:39;;;;;;;6.83;3.03;;;-4.90;99.90;;;;;;5034449;28;20037;-85
2021/01/25 04:26:05;;;;;;;6.87;3.00;;;-4.80;99.90;;;;;;5052258;28;20024;-85
2021/01/25 04:28:31;;;;;;;5.27;3.03;;;-4.90;99.90;;;;;;5034090;28;20116;-85
2021/01/25 04:30:57;;;;;;;10.27;3.07;;;-4.90;99.90;;;;;;5051910;28;20107;-85
2021/01/25 04:33:22;;;;;;;9.27;3.23;;;-4.90;99.90;;;;;;5034232;28;20043;-85
2021/01/25 04:35:48;;;;;;;4.50;2.77;;;-4.90;99.90;;;;;;5051989;28;20497;-85
2021/01/25 04:38:13;;;;;;;4.40;2.50;;;-4.90;99.90;;;;;;5051890;28;20091;-85
2021/01/25 04:40:39;;;;;;;6.23;2.53;;;-4.90;99.90;;;;;;5051926;28;20548;-85
2021/01/25 04:43:05;;;;;;;6.70;3.53;;;-4.90;99.90;;;;;;5051808;28;20043;-85
2021/01/25 04:45:31;;;;;;;7.13;3.87;;;-4.90;99.90;;;;;;5051751;28;20043;-85
2021/01/25 04:47:57;;;;;;;9.07;4.03;;;-4.90;99.90;;;;;;5051230;28;20431;-85
2021/01/25 04:50:23;;;;;;;8.47;3.57;;;-4.90;99.90;;;;;;5051938;28;20060;-85
2021/01/25 04:52:49;;;;;;;3.07;2.43;;;-4.90;99.90;;;;;;5051946;28;20401;-85
2021/01/25 04:55:16;;;;;;;6.53;3.07;;;-4.90;99.90;;;;;;5051897;28;20412;-85
2021/01/25 04:57:43;;;;;;;4.40;3.03;;;-4.90;99.90;;;;;;5051426;28;20107;-85
2021/01/25 05:00:10;;;;;;;4.97;2.70;;;-4.80;99.90;;;;;;5051784;28;20083;-85
2021/01/25 05:02:39;;;;;;;5.07;2.87;;;-4.80;99.90;;;;;;5051455;28;20488;-85
2021/01/25 05:05:07;;;;;;;4.13;2.70;;;-4.80;99.90;;;;;;5051610;28;20053;-85
2021/01/25 05:07:32;;;;;;;5.50;3.23;;;-4.80;99.90;;;;;;5051423;28;20063;-85
2021/01/25 05:09:59;;;;;;;4.90;3.20;;;-4.80;99.90;;;;;;5033289;28;20025;-85
2021/01/25 05:12:25;;;;;;;4.77;3.00;;;-4.80;99.90;;;;;;5033340;28;20059;-85
2021/01/25 05:14:50;;;;;;;7.63;3.00;;;-4.80;99.90;;;;;;5051357;28;20058;-85
2021/01/25 05:17:16;;;;;;;7.73;2.60;;;-4.70;99.90;;;;;;5033479;28;20098;-85
2021/01/25 05:19:47;;;;;;;4.67;2.77;;;-4.70;99.90;;;;;;5051620;28;20466;-85
2021/01/25 05:22:20;;;;;;;5.17;2.57;;;-4.70;99.90;;;;;;5051200;28;20025;-85
2021/01/25 05:24:50;;;;;;;5.03;2.70;;;-4.70;99.90;;;;;;5051066;28;20166;-85
2021/01/25 05:27:26;;;;;;;3.00;2.20;;;-4.60;99.90;;;;;;5051234;28;20029;-85
2021/01/25 05:29:53;;;;;;;7.23;3.00;;;-4.60;99.90;;;;;;5051270;28;20427;-85
2021/01/25 05:32:19;;;;;;;4.10;2.17;;;-4.50;99.90;;;;;;5033376;28;20021;-85
2021/01/25 05:34:46;;;;;;;6.00;2.20;;;-4.50;99.90;;;;;;5032896;28;20029;-85
2021/01/25 05:37:16;;;;;;;7.60;3.40;;;-4.40;99.90;;;;;;5050800;28;20025;-85
2021/01/25 05:39:48;;;;;;;10.73;2.80;;;-4.40;99.90;;;;;;5032830;28;20033;-85
2021/01/25 05:42:14;;;;;;;4.60;2.43;;;-4.30;99.90;;;;;;5032773;28;20021;-85
2021/01/25 05:44:41;;;;;;;5.40;2.20;;;-4.30;99.90;;;;;;5033068;28;20025;-85
2021/01/25 05:47:11;;;;;;;6.90;2.47;;;-4.20;99.90;;;;;;5032670;28;20056;-85
2021/01/25 05:49:37;;;;;;;4.83;2.67;;;-4.20;99.90;;;;;;5050407;28;20021;-85
2021/01/25 05:52:04;;;;;;;4.90;2.37;;;-4.20;99.90;;;;;;5032649;28;20075;-85
2021/01/25 05:54:30;;;;;;;4.93;2.37;;;-4.10;99.90;;;;;;5050722;28;20017;-85
2021/01/25 05:56:56;;;;;;;5.43;2.13;;;-4.10;99.90;;;;;;5050462;28;20049;-85
2021/01/25 05:59:21;;;;;;;6.23;2.10;;;-4.00;99.90;;;;;;5031913;28;20025;-85
2021/01/25 06:01:48;;;;;;;5.60;2.70;;;-4.00;99.90;;;;;;5032453;28;20025;-85
2021/01/25 06:04:20;;;;;;;5.83;2.37;;;-4.00;99.90;;;;;;5032523;28;20035;-85
2021/01/25 06:06:58;;;;;;;4.53;2.40;;;-3.90;99.90;;;;;;5050481;28;20359;-85
2021/01/25 06:09:29;;;;;;;5.57;3.03;;;-3.90;99.90;;;;;;5032518;28;20577;-85
2021/01/25 06:12:01;;;;;;;5.33;2.73;;;-3.80;99.90;;;;;;5050310;28;20378;-85
2021/01/25 06:14:35;;;;;;;5.30;2.57;;;-3.80;99.90;;;;;;5032479;28;20021;-85
2021/01/25 06:17:00;;;;;;;11.97;7.50;;;-3.70;99.90;;;;;;5050263;28;20493;-85
2021/01/25 06:19:29;;;;;;;7.40;3.80;;;-3.70;99.90;;;;;;5032254;28;20025;-85
2021/01/25 06:21:57;;;;;;;5.90;2.93;;;-3.60;99.90;;;;;;5050341;28;20033;-85
2021/01/25 06:24:24;;;;;;;5.30;3.33;;;-3.50;99.90;;;;;;5032575;28;20032;-85
2021/01/25 06:26:51;;;;;;;6.37;3.17;;;-3.50;99.90;;;;;;5050460;28;20385;-85
2021/01/25 06:29:17;;;;;;;7.90;3.57;;;-3.40;99.90;;;;;;5049744;28;20025;-85
2021/01/25 06:31:45;;;;;;;7.63;3.43;;;-3.40;99.90;;;;;;5050160;28;20350;-85
2021/01/25 06:34:11;;;;;;;7.13;3.63;;;-3.40;99.90;;;;;;5050158;28;20452;-85
2021/01/25 06:36:39;;;;;;;6.60;3.47;;;-3.50;99.90;;;;;;5050138;28;20025;-85
2021/01/25 06:39:06;;;;;;;6.57;3.13;;;-3.50;99.90;;;;;;5032273;28;20060;-85
2021/01/25 06:41:36;;;;;;;6.53;3.40;;;-3.50;99.90;;;;;;5050581;28;20053;-85
2021/01/25 06:44:03;;;;;;;8.03;3.60;;;-3.50;99.90;;;;;;5032320;28;20048;-85
2021/01/25 06:46:31;;;;;;;6.27;3.57;;;-3.40;99.90;;;;;;5050155;28;20041;-85
2021/01/25 06:48:58;;;;;;;5.23;3.27;;;-3.40;99.90;;;;;;5032486;28;20025;-85
2021/01/25 06:51:24;;;;;;;11.77;3.43;;;-3.40;99.90;;;;;;5031846;28;20055;-85
2021/01/25 06:53:52;;;;;;;85.93;33.13;;;-3.40;99.90;;;;;;5031645;28;20078;-85
2021/01/25 06:56:17;;;;;;;28.97;12.93;;;-3.30;99.90;;;;;;5048528;28;20064;-83
2021/01/25 06:58:47;;;;;;;128.33;44.30;;;-3.20;99.90;;;;;;5041364;28;20398;-83
2021/01/25 07:01:16;;;;;;;36.37;15.10;;;-3.20;99.90;;;;;;5021796;28;20059;-83
2021/01/25 07:03:55;;;;;;;94.80;38.53;;;-3.20;99.90;;;;;;5042306;28;20072;-83
2021/01/25 07:06:21;;;;;;;72.13;30.10;;;-3.10;99.90;;;;;;5045126;28;20405;-83
2021/01/25 07:08:55;;;;;;;199.47;69.40;;;-3.10;99.90;;;;;;5019264;28;20088;-83
2021/01/25 07:11:23;;;;;;;48.30;21.90;;;-3.10;99.90;;;;;;5015833;28;20052;-83
2021/01/25 07:13:49;;;;;;;27.97;12.87;;;-3.10;99.90;;;;;;5018067;28;20057;-83
2021/01/25 07:16:16;;;;;;;8.97;3.57;;;-3.00;99.90;;;;;;5018129;28;20470;-83
2021/01/25 07:18:43;;;;;;;6.37;3.00;;;-3.00;99.90;;;;;;5035761;28;20026;-83
2021/01/25 07:21:12;;;;;;;5.87;3.00;;;-3.00;99.90;;;;;;5035654;28;20064;-83
2021/01/25 07:23:41;;;;;;;5.77;2.77;;;-2.90;99.90;;;;;;5035771;28;20087;-83
2021/01/25 07:26:09;;;;;;;7.70;2.77;;;-2.90;99.90;;;;;;5035405;28;20406;-83
2021/01/25 07:28:34;;;;;;;5.60;2.57;;;-2.90;99.90;;;;;;5035547;28;20078;-82
2021/01/25 07:31:00;;;;;;;15.40;6.23;;;-2.90;99.90;;;;;;5042620;28;20466;-83
2021/01/25 07:33:26;;;;;;;9.43;3.80;;;-2.90;99.90;;;;;;5045830;28;20025;-83
2021/01/25 07:35:55;;;;;;;5.70;2.90;;;-2.90;99.90;;;;;;5045944;28;20013;-83
2021/01/25 07:38:22;;;;;;;7.77;3.90;;;-3.00;99.90;;;;;;5044933;28;20075;-83
2021/01/25 07:40:49;;;;;;;12.90;3.80;;;-3.00;99.90;;;;;;5043363;28;20049;-84
2021/01/25 07:43:19;;;;;;;10.07;4.20;;;-3.00;99.90;;;;;;5019500;28;20061;-83
2021/01/25 07:45:46;;;;;;;8.77;4.23;;;-3.00;99.90;;;;;;5034969;28;20025;-83
2021/01/25 07:48:13;;;;;;;7.27;4.27;;;-3.00;99.90;;;;;;5035341;28;20021;-83
2021/01/25 07:50:40;;;;;;;10.17;3.40;;;-3.00;99.90;;;;;;5035203;28;20029;-83
2021/01/25 07:53:06;;;;;;;11.53;6.30;;;-3.00;99.90;;;;;;5035622;28;20481;-83
2021/01/25 07:55:37;;;;;;;9.60;3.67;;;-3.00;99.90;;;;;;5017105;28;20029;-83
2021/01/25 07:58:10;;;;;;;8.77;3.93;;;-2.90;99.90;;;;;;5035010;28;20037;-83
2021/01/25 08:00:38;;;;;;;6.93;3.20;;;-2.90;99.90;;;;;;5035072;28;20032;-83
2021/01/25 08:03:20;;;;;;;8.23;3.07;;;-2.90;99.90;;;;;;5034926;28;20028;-83
2021/01/25 08:05:49;;;;;;;8.53;3.40;;;-3.00;99.90;;;;;;5034887;28;20022;-83
2021/01/25 08:08:15;;;;;;;11.57;3.30;;;-2.90;99.90;;;;;;5050717;28;20363;-84
2021/01/25 08:10:41;;;;;;;6.17;2.50;;;-2.80;99.90;;;;;;5054807;28;20074;-83
2021/01/25 08:13:19;;;;;;;3.37;2.10;;;-2.80;99.90;;;;;;5037063;28;20401;-83
2021/01/25 08:16:03;;;;;;;4.53;2.20;;;-2.80;99.90;;;;;;5054824;28;20104;-83
2021/01/25 08:18:53;;;;;;;4.37;2.47;;;-2.80;99.90;;;;;;5055008;28;20017;-84
2021/01/25 08:21:24;;;;;;;5.30;2.47;;;-2.70;99.90;;;;;;5052647;28;20028;-83
2021/01/25 08:23:52;;;;;;;3.73;2.23;;;-2.60;99.90;;;;;;5053443;28;20048;-83
2021/01/25 08:26:26;;;;;;;9.47;2.97;;;-2.60;99.90;;;;;;5054766;28;20382;-83
2021/01/25 08:29:00;;;;;;;8.67;2.53;;;-2.60;99.90;;;;;;5052954;28;20051;-83
2021/01/25 08:31:42;;;;;;;6.50;2.87;;;-2.50;99.90;;;;;;5054732;28;20052;-84
2021/01/25 08:34:31;;;;;;;7.33;2.63;;;-2.50;99.90;;;;;;5053307;28;20469;-83
2021/01/25 08:37:05;;;;;;;11.20;3.33;;;-2.40;99.90;;;;;;5054839;28;20076;-83
2021/01/25 08:39:39;;;;;;;11.23;2.50;;;-2.40;99.90;;;;;;5054523;28;20385;-84
2021/01/25 08:42:19;;;;;;;4.80;2.38;;;-2.40;99.90;;;;;;5054331;28;20382;-84
2021/01/25 08:45:08;;;;;;;3.60;2.40;;;-2.40;99.90;;;;;;5039411;28;20190;-83
2021/01/25 08:47:34;;;;;;;4.93;2.40;;;-2.30;99.90;;;;;;5035113;28;20041;-84
2021/01/25 08:50:01;;;;;;;6.83;2.23;;;-2.30;99.90;;;;;;5042418;28;20017;-83
2021/01/25 08:52:43;;;;;;;4.53;2.53;;;-2.30;99.90;;;;;;5038590;28;20021;-83
2021/01/25 08:55:48;;;;;;;6.93;3.93;;;-2.20;99.90;;;;;;5034201;28;20028;-83
2021/01/25 08:58:29;;;;;;;8.43;4.03;;;-2.20;99.90;;;;;;4992687;28;20034;-84
2021/01/25 09:00:55;;;;;;;8.30;3.20;;;-2.20;99.90;;;;;;4992476;28;20717;-84
2021/01/25 09:03:23;;;;;;;15.30;13.67;;;-2.20;99.90;;;;;;5016366;28;20091;-84
2021/01/25 09:05:51;;;;;;;12.10;6.40;;;-2.10;99.90;;;;;;5034029;28;20022;-83
2021/01/25 09:08:16;;;;;;;7.70;4.97;;;-2.00;99.90;;;;;;5034328;28;20018;-84
2021/01/25 09:10:42;;;;;;;8.07;4.17;;;-2.00;99.90;;;;;;5016270;28;20064;-84
2021/01/25 09:13:08;;;;;;;14.77;5.50;;;-2.00;99.90;;;;;;5033802;28;20127;-84
2021/01/25 09:15:33;;;;;;;16.43;8.23;;;-1.90;99.90;;;;;;5024405;28;20017;-84
2021/01/25 09:17:59;;;;;;;7.57;3.40;;;-1.90;99.90;;;;;;5054034;28;20104;-84
2021/01/25 09:20:25;;;;;;;5.83;2.40;;;-1.90;99.90;;;;;;5053730;28;20056;-84
2021/01/25 09:22:51;;;;;;;4.47;2.50;;;-1.80;99.90;;;;;;5035621;28;20033;-84
2021/01/25 09:25:17;;;;;;;7.17;2.70;;;-1.80;99.90;;;;;;5035480;28;20075;-84
2021/01/25 09:27:43;;;;;;;4.30;2.47;;;-1.80;99.90;;;;;;5053579;28;20083;-83
2021/01/25 09:30:12;;;;;;;4.03;2.10;;;-1.70;99.90;;;;;;5053520;28;20405;-83
2021/01/25 09:32:38;;;;;;;5.27;1.97;;;-1.70;99.90;;;;;;5035345;28;20021;-83
2021/01/25 09:35:05;;;;;;;5.97;2.00;;;-1.60;99.90;;;;;;5053430;28;20315;-84
2021/01/25 09:37:31;;;;;;;6.17;2.60;;;-1.70;99.90;;;;;;5053035;28;20458;-83
2021/01/25 09:39:56;;;;;;;5.20;2.47;;;-1.70;99.90;;;;;;5034898;28;20096;-83
2021/01/25 09:42:22;;;;;;;5.63;2.30;;;-1.60;99.90;;;;;;5041819;28;20033;-83
2021/01/25 09:44:48;;;;;;;6.27;2.37;;;-1.50;99.90;;;;;;5042074;28;20044;-83
2021/01/25 09:47:13;;;;;;;6.10;2.47;;;-1.40;99.90;;;;;;5039308;28;20029;-83
2021/01/25 09:49:39;;;;;;;6.47;2.03;;;-1.40;99.90;;;;;;5040659;28;20032;-84
2021/01/25 09:52:04;;;;;;;6.23;2.30;;;-1.30;99.90;;;;;;5021290;28;20386;-83
2021/01/25 09:54:30;;;;;;;5.13;2.23;;;-1.30;99.90;;;;;;5044527;28;20105;-83
2021/01/25 09:56:55;;;;;;;8.57;2.60;;;-1.20;99.90;;;;;;5043735;28;20490;-83
2021/01/25 09:59:21;;;;;;;5.73;2.50;;;-1.20;99.90;;;;;;5034654;28;20037;-83
2021/01/25 10:01:47;;;;;;;5.03;2.30;;;-1.20;99.90;;;;;;5044199;28;20029;-84
2021/01/25 10:04:13;;;;;;;6.13;2.27;;;-1.20;99.90;;;;;;5041944;28;20032;-83
2021/01/25 10:06:38;;;;;;;4.63;2.20;;;-1.20;99.90;;;;;;5033050;28;20048;-83
2021/01/25 10:09:04;;;;;;;6.93;2.20;;;-1.20;99.90;;;;;;5036956;28;20498;-83
2021/01/25 10:11:30;;;;;;;6.37;2.40;;;-1.20;99.90;;;;;;5035054;28;20028;-83
2021/01/25 10:13:56;;;;;;;7.53;2.63;;;-1.10;99.90;;;;;;5034813;28;20373;-83
2021/01/25 10:16:22;;;;;;;6.13;3.00;;;-1.00;99.90;;;;;;5052664;28;20037;-83
2021/01/25 10:18:48;;;;;;;7.27;2.97;;;-1.00;99.90;;;;;;5053003;28;20029;-84
2021/01/25 10:21:19;;;;;;;5.67;2.90;;;-0.90;99.90;;;;;;5052677;28;20116;-83
2021/01/25 10:23:46;;;;;;;7.67;2.90;;;-0.90;99.90;;;;;;5034887;28;20045;-83
2021/01/25 10:26:11;;;;;;;6.80;2.47;;;-0.80;99.90;;;;;;5052975;28;20057;-85
2021/01/25 10:28:37;;;;;;;6.23;2.57;;;-0.70;99.90;;;;;;5052793;28;20431;-86
2021/01/25 10:31:02;;;;;;;7.13;2.93;;;-0.70;99.90;;;;;;5034992;28;20025;-85
2021/01/25 10:33:28;;;;;;;6.10;2.70;;;-0.60;99.90;;;;;;5034393;28;20122;-85
2021/01/25 10:35:54;;;;;;;5.40;2.90;;;-0.50;99.90;;;;;;5035034;28;20029;-85
2021/01/25 10:38:19;;;;;;;9.87;2.50;;;-0.40;99.90;;;;;;5035009;28;20372;-86
2021/01/25 10:40:45;;;;;;;3.60;2.50;;;-0.20;99.90;;;;;;5053165;28;20124;-85
2021/01/25 10:43:11;;;;;;;8.33;2.70;;;-0.20;99.90;;;;;;5052857;28;20033;-86
2021/01/25 10:45:36;;;;;;;4.53;2.40;;;-0.10;99.90;;;;;;5053424;28;20104;-85
2021/01/25 10:48:02;;;;;;;3.53;2.20;;;0.00;99.90;;;;;;5056906;28;20101;-85
2021/01/25 10:50:28;;;;;;;5.10;2.50;;;0.00;99.90;;;;;;5056673;28;20037;-86
2021/01/25 10:52:54;;;;;;;5.10;2.77;;;0.00;99.90;;;;;;5056798;28;20032;-86
2021/01/25 10:55:20;;;;;;;5.60;3.17;;;-0.10;99.90;;;;;;5039138;28;20079;-86
2021/01/25 10:57:45;;;;;;;6.47;3.20;;;0.00;99.90;;;;;;5038814;28;20037;-86
2021/01/25 11:00:13;;;;;;;11.07;3.70;;;0.00;99.90;;;;;;5056743;28;20060;-86
2021/01/25 11:02:38;;;;;;;6.20;4.10;;;0.10;99.90;;;;;;5056528;28;20086;-85
2021/01/25 11:05:06;;;;;;;5.47;3.47;;;0.20;99.90;;;;;;5038201;28;20037;-86
2021/01/25 11:07:32;;;;;;;6.73;4.10;;;0.20;99.90;;;;;;5038315;28;20112;-86
2021/01/25 11:09:58;;;;;;;8.17;3.93;;;0.20;99.90;;;;;;5038224;28;20158;-86
2021/01/25 11:12:24;;;;;;;6.20;4.27;;;0.20;99.90;;;;;;5037000;28;20037;-75
2021/01/25 11:14:49;;;;;;;8.10;4.33;;;0.20;99.90;;;;;;5044677;28;20036;-76
2021/01/25 11:17:15;;;;;;;10.83;4.43;;;0.20;99.90;;;;;;5046960;28;20159;-80
2021/01/25 11:19:40;;;;;;;6.87;4.13;;;0.20;99.90;;;;;;5045237;28;20032;-80
2021/01/25 11:22:06;;;;;;;6.93;4.10;;;0.30;99.90;;;;;;5043774;28;20104;-80
2021/01/25 11:24:32;;;;;;;5.47;3.67;;;0.40;99.90;;;;;;5036227;28;20029;-80
2021/01/25 11:26:59;;;;;;;6.03;3.30;;;0.50;99.90;;;;;;5047066;28;20108;-80
2021/01/25 11:29:28;;;;;;;6.53;3.80;;;0.60;99.90;;;;;;5056437;28;20039;-80
2021/01/25 11:31:57;;;;;;;6.03;3.80;;;0.60;99.90;;;;;;5056291;28;20134;-80
2021/01/25 11:34:22;;;;;;;11.87;3.77;;;0.70;99.90;;;;;;5038229;28;20028;-80
2021/01/25 11:36:48;;;;;;;11.30;3.90;;;0.70;99.90;;;;;;5038178;28;20025;-80
2021/01/25 11:39:13;;;;;;;6.07;3.90;;;0.70;99.90;;;;;;5056381;28;20033;-80
2021/01/25 11:41:39;;;;;;;8.37;4.00;;;0.70;99.90;;;;;;5056002;28;20032;-81
2021/01/25 11:44:05;;;;;;;5.73;3.53;;;0.70;99.90;;;;;;5038040;28;20120;-80
2021/01/25 11:46:30;;;;;;;8.97;3.87;;;0.80;99.90;;;;;;5056008;28;20032;-80
2021/01/25 11:48:56;;;;;;;6.53;4.00;;;0.90;99.90;;;;;;5055775;28;20036;-80
2021/01/25 11:51:21;;;;;;;5.83;3.63;;;1.00;99.90;;;;;;5037897;28;20028;-81
2021/01/25 11:53:47;;;;;;;6.87;3.90;;;1.10;99.90;;;;;;5055806;28;20036;-81
2021/01/25 11:56:12;;;;;;;9.00;3.87;;;1.20;99.90;;;;;;5055606;28;20493;-81
2021/01/25 11:58:38;;;;;;;8.30;4.10;;;1.40;99.90;;;;;;5054515;28;20466;-81
2021/01/25 12:01:04;;;;;;;10.13;4.30;;;1.60;99.90;;;;;;5055845;28;20029;-80
2021/01/25 12:03:31;;;;;;;8.93;4.23;;;1.70;99.90;;;;;;5055506;28;20036;-80
2021/01/25 12:05:57;;;;;;;7.33;3.57;;;1.90;99.90;;;;;;5055573;28;20102;-80
2021/01/25 12:08:22;;;;;;;5.63;3.93;;;2.10;99.90;;;;;;5055429;28;20029;-80
2021/01/25 12:10:48;;;;;;;7.30;3.90;;;2.20;99.90;;;;;;5038360;28;20037;-80
2021/01/25 12:13:13;;;;;;;4.77;3.60;;;2.10;99.90;;;;;;5024236;28;20032;-80
2021/01/25 12:15:39;;;;;;;6.97;3.50;;;2.20;99.90;;;;;;5055680;28;20521;-80
2021/01/25 12:18:05;;;;;;;6.50;3.50;;;2.40;99.90;;;;;;5055358;28;20033;-80
2021/01/25 12:20:30;;;;;;;5.87;3.47;;;2.40;99.90;;;;;;5040731;28;20045;-80
2021/01/25 12:22:56;;;;;;;7.67;3.37;;;2.50;99.90;;;;;;5041999;28;20072;-80
2021/01/25 12:25:21;;;;;;;4.60;3.47;;;2.50;99.90;;;;;;5047243;28;20056;-80
2021/01/25 12:27:49;;;;;;;3.53;3.10;;;2.60;99.90;;;;;;5042898;28;20029;-80
2021/01/25 12:30:15;;;;;;;4.87;3.07;;;2.70;99.90;;;;;;5044260;28;20590;-80
2021/01/25 12:32:42;;;;;;;4.17;3.20;;;2.70;99.90;;;;;;5041584;28;20022;-80
2021/01/25 12:35:09;;;;;;;4.33;3.27;;;2.70;99.90;;;;;;5043174;28;20352;-80
2021/01/25 12:37:35;;;;;;;8.20;3.40;;;2.60;99.90;;;;;;5041609;28;20025;-80
2021/01/25 12:40:00;;;;;;;5.47;3.53;;;2.50;99.90;;;;;;5017012;28;20033;-80
2021/01/25 12:42:26;;;;;;;4.40;3.30;;;2.50;99.90;;;;;;5034864;28;20052;-80
2021/01/25 12:44:51;;;;;;;4.47;3.40;;;2.30;99.90;;;;;;5017047;28;20033;-80
2021/01/25 12:47:17;;;;;;;4.50;3.60;;;2.10;99.90;;;;;;5034869;28;20060;-80
2021/01/25 12:49:42;;;;;;;4.40;3.60;;;2.00;99.90;;;;;;5034587;28;20038;-80